Time;durP1;ratioP1;P1;durP2;ratioP2;P2;SDS_P1;SDS_P2;PMS_P1;PMS_P2;Temp;Humidity;BMP_temperature;BMP_pressure;BME280_temperature;BME280_humidity;BME280_pressure;Samples;Min_cycle;Max_cycle;Signal;HPM_P1;HPM_P2
2023/10/25 00:07:17;;;;;;;0.47;0.47;;;;;;;11.66;81.90;91738.56;2048040;70;20517;-78
2023/10/25 00:09:43;;;;;;;2.90;0.68;;;;;;;11.32;84.98;91735.75;2048108;70;20165;-79
2023/10/25 00:12:09;;;;;;;1.50;0.70;;;;;;;11.40;85.35;91738.16;2050141;70;20599;-77
2023/10/25 00:14:35;;;;;;;1.52;0.70;;;;;;;11.54;84.79;91743.69;2048173;70;20234;-77
2023/10/25 00:17:01;;;;;;;2.63;0.80;;;;;;;11.55;85.08;91745.88;2047609;70;20161;-76
2023/10/25 00:19:26;;;;;;;0.65;0.57;;;;;;;11.52;85.01;91746.44;2047741;70;20134;-78
2023/10/25 00:21:52;;;;;;;1.65;0.68;;;;;;;11.61;84.35;91745.41;2048230;70;20139;-82
2023/10/25 00:24:17;;;;;;;1.65;0.63;;;;;;;11.63;83.95;91751.84;2050313;70;20289;-78
2023/10/25 00:26:43;;;;;;;2.53;0.50;;;;;;;11.63;83.89;91751.09;2048231;70;20595;-75
2023/10/25 00:29:09;;;;;;;1.20;0.50;;;;;;;11.55;84.01;91751.50;2048304;69;20294;-78
2023/10/25 00:31:34;;;;;;;1.13;0.50;;;;;;;11.55;84.47;91762.78;2047539;70;20185;-74
2023/10/25 00:34:00;;;;;;;2.88;1.02;;;;;;;11.55;83.92;91762.78;2050552;70;20147;-74
2023/10/25 00:36:27;;;;;;;1.27;0.70;;;;;;;11.61;83.61;91757.41;2050511;70;20725;-77
2023/10/25 00:38:53;;;;;;;1.85;0.90;;;;;;;11.57;83.73;91754.41;2050317;70;20696;-77
2023/10/25 00:41:18;;;;;;;2.38;0.80;;;;;;;11.50;83.82;91751.97;2047609;70;20214;-75
2023/10/25 00:43:44;;;;;;;2.55;0.80;;;;;;;11.46;84.33;91749.72;2048152;70;20194;-74
2023/10/25 00:46:12;;;;;;;4.05;0.80;;;;;;;11.52;83.98;91741.50;2047552;70;20174;-75
2023/10/25 00:48:45;;;;;;;4.53;0.93;;;;;;;11.51;84.53;91730.88;2047658;70;20239;-75
2023/10/25 00:51:12;;;;;;;4.53;0.80;;;;;;;11.48;84.83;91727.25;2047924;70;20147;-75
2023/10/25 00:53:40;;;;;;;3.13;0.60;;;;;;;11.50;84.25;91727.34;2047649;70;20212;-78
2023/10/25 00:56:10;;;;;;;1.30;0.60;;;;;;;11.57;84.19;91729.03;2048380;70;20147;-76
2023/10/25 00:58:37;;;;;;;0.80;0.50;;;;;;;11.40;84.64;91722.00;2050309;70;20174;-76
2023/10/25 01:01:03;;;;;;;0.50;0.50;;;;;;;11.50;84.46;91726.59;2048150;70;20158;-78
2023/10/25 01:03:29;;;;;;;1.05;0.50;;;;;;;11.52;84.12;91724.59;2050482;70;20633;-77
2023/10/25 01:05:54;;;;;;;0.60;0.47;;;;;;;11.53;82.99;91714.06;2050212;70;20147;-76
2023/10/25 01:08:21;;;;;;;0.32;0.30;;;;;;;11.51;83.88;91713.97;2047366;70;20229;-77
2023/10/25 01:10:50;;;;;;;0.40;0.40;;;;;;;11.52;83.57;91709.78;2050011;70;20324;-75
2023/10/25 01:13:17;;;;;;;2.17;0.43;;;;;;;11.56;83.81;91724.06;2047949;70;20238;-75
2023/10/25 01:15:42;;;;;;;3.78;0.40;;;;;;;11.56;82.87;91727.59;2047880;70;20154;-74
2023/10/25 01:18:08;;;;;;;1.00;0.60;;;;;;;11.29;85.13;91716.59;2047993;70;20154;-77
2023/10/25 01:20:35;;;;;;;1.35;0.70;;;;;;;11.18;85.18;91709.81;2050147;70;20673;-76
2023/10/25 01:23:01;;;;;;;1.13;0.70;;;;;;;11.30;83.69;91715.22;2050257;70;20585;-76
2023/10/25 01:25:26;;;;;;;2.30;0.90;;;;;;;11.23;85.34;91714.25;2048158;70;20189;-76
2023/10/25 01:27:52;;;;;;;4.32;0.73;;;;;;;11.35;84.88;91717.56;2048156;70;20201;-75
2023/10/25 01:30:18;;;;;;;1.77;0.60;;;;;;;11.30;84.28;91721.56;2047519;70;20173;-75
2023/10/25 01:32:44;;;;;;;1.70;0.85;;;;;;;11.32;84.22;91720.94;2050273;70;20170;-75
2023/10/25 01:35:13;;;;;;;0.50;0.50;;;;;;;11.29;84.85;91713.75;2048076;70;20152;-77
2023/10/25 01:37:39;;;;;;;0.98;0.50;;;;;;;11.31;83.86;91708.19;2049993;70;20141;-75
2023/10/25 01:40:05;;;;;;;3.78;0.60;;;;;;;11.30;84.38;91707.47;2048019;70;20563;-75
2023/10/25 01:42:31;;;;;;;1.00;0.52;;;;;;;11.29;84.28;91697.59;2047382;70;20146;-76
2023/10/25 01:45:01;;;;;;;0.40;0.40;;;;;;;11.25;84.71;91694.59;2047921;70;20158;-75
2023/10/25 01:47:27;;;;;;;3.28;0.57;;;;;;;11.15;85.07;91685.72;2047843;70;20151;-74
2023/10/25 01:49:53;;;;;;;1.67;0.60;;;;;;;11.18;85.23;91684.44;2047361;70;20235;-79
2023/10/25 01:52:19;;;;;;;2.38;0.60;;;;;;;11.05;84.96;91676.84;2047772;70;20146;-77
2023/10/25 01:54:46;;;;;;;1.63;0.90;;;;;;;10.98;84.77;91666.69;2050340;70;20585;-76
2023/10/25 01:57:12;;;;;;;1.00;0.60;;;;;;;11.04;84.87;91678.19;2050447;70;20178;-77
2023/10/25 01:59:38;;;;;;;2.05;0.80;;;;;;;10.98;85.27;91669.50;2050217;70;20927;-75
2023/10/25 02:02:05;;;;;;;2.47;0.60;;;;;;;10.92;85.52;91667.88;2050265;70;20153;-74
2023/10/25 02:04:31;;;;;;;0.47;0.47;;;;;;;10.97;84.20;91674.41;2050416;70;20138;-76
2023/10/25 02:06:56;;;;;;;0.82;0.40;;;;;;;10.95;85.02;91668.69;2047277;70;20150;-75
2023/10/25 02:09:22;;;;;;;2.80;0.50;;;;;;;10.97;84.80;91682.84;2047668;70;20242;-75
2023/10/25 02:11:48;;;;;;;0.68;0.50;;;;;;;10.98;84.25;91680.75;2050248;70;20327;-76
2023/10/25 02:14:14;;;;;;;1.10;0.40;;;;;;;10.96;84.94;91683.50;2050427;70;20230;-75
2023/10/25 02:16:42;;;;;;;0.40;0.40;;;;;;;10.92;84.33;91684.03;2047557;70;20159;-76
2023/10/25 02:19:08;;;;;;;0.45;0.40;;;;;;;10.96;84.05;91695.47;2047374;70;20142;-76
2023/10/25 02:21:36;;;;;;;1.65;0.50;;;;;;;10.94;84.29;91696.09;2050209;70;20538;-74
2023/10/25 02:24:03;;;;;;;4.47;0.70;;;;;;;10.93;84.77;91700.28;2050597;70;20170;-75
2023/10/25 02:26:29;;;;;;;0.55;0.55;;;;;;;10.94;84.50;91695.38;2048342;70;20161;-75
2023/10/25 02:28:55;;;;;;;0.30;0.30;;;;;;;10.98;84.28;91683.56;2047812;70;20602;-77
2023/10/25 02:31:21;;;;;;;0.30;0.30;;;;;;;10.94;84.99;91693.28;2050758;70;20667;-74
2023/10/25 02:33:47;;;;;;;0.25;0.20;;;;;;;10.97;84.93;91687.75;2050832;70;20225;-73
2023/10/25 02:36:13;;;;;;;1.33;0.30;;;;;;;11.00;84.91;91692.13;2048584;70;20185;-74
2023/10/25 02:38:38;;;;;;;1.45;0.40;;;;;;;10.93;85.00;91686.22;2048411;70;20157;-74
2023/10/25 02:41:04;;;;;;;2.80;0.40;;;;;;;11.01;83.67;91679.50;2048472;70;20149;-73
2023/10/25 02:43:29;;;;;;;1.10;0.50;;;;;;;11.02;83.20;91687.28;2048432;70;20569;-75
2023/10/25 02:46:02;;;;;;;1.77;0.50;;;;;;;10.96;84.59;91691.94;2047850;70;20254;-75
2023/10/25 02:48:28;;;;;;;1.10;1.00;;;;;;;11.01;83.54;91691.47;2050499;70;20147;-76
2023/10/25 02:50:54;;;;;;;7.13;0.90;;;;;;;10.97;83.47;91696.94;2048464;70;20198;-77
2023/10/25 02:53:21;;;;;;;4.25;0.90;;;;;;;11.00;84.21;91697.75;2048191;69;20233;-73
2023/10/25 02:55:47;;;;;;;1.33;0.73;;;;;;;11.03;83.87;91702.09;2050676;70;20614;-74
2023/10/25 02:58:14;;;;;;;3.55;0.60;;;;;;;11.00;84.03;91689.31;2048701;70;20186;-76
2023/10/25 03:00:45;;;;;;;1.10;0.60;;;;;;;11.03;84.20;91694.38;2048621;70;20199;-75
2023/10/25 03:03:12;;;;;;;1.10;0.70;;;;;;;11.07;84.01;91700.16;2050454;70;20170;-75
2023/10/25 03:05:41;;;;;;;1.08;0.70;;;;;;;11.08;83.57;91693.16;2050796;70;20150;-75
2023/10/25 03:08:08;;;;;;;2.00;0.70;;;;;;;11.01;84.25;91685.84;2048189;70;20238;-77
2023/10/25 03:10:34;;;;;;;1.08;0.73;;;;;;;11.04;84.38;91695.84;2044932;70;20279;-73
2023/10/25 03:13:00;;;;;;;3.70;0.50;;;;;;;10.96;84.86;91689.13;2050629;70;20249;-75
2023/10/25 03:15:28;;;;;;;2.25;0.57;;;;;;;10.97;84.65;91682.13;2050748;70;20178;-73
2023/10/25 03:17:54;;;;;;;2.03;0.57;;;;;;;10.86;84.54;91692.97;2050796;70;20684;-72
2023/10/25 03:20:20;;;;;;;1.67;0.90;;;;;;;10.92;84.38;91698.13;2050644;70;20649;-74
2023/10/25 03:22:46;;;;;;;2.95;0.80;;;;;;;10.73;84.15;91671.28;2048426;70;20257;-74
2023/10/25 03:25:12;;;;;;;0.80;0.60;;;;;;;10.81;84.47;91693.41;2048578;70;20225;-75
2023/10/25 03:27:37;;;;;;;2.97;0.70;;;;;;;10.82;83.76;91704.03;2050827;70;20129;-75
2023/10/25 03:30:04;;;;;;;1.17;0.70;;;;;;;10.80;84.84;91703.94;2048334;70;20257;-76
2023/10/25 03:32:30;;;;;;;1.08;0.90;;;;;;;10.87;85.17;91710.56;2048030;70;20147;-77
2023/10/25 03:34:56;;;;;;;0.85;0.70;;;;;;;10.84;85.09;91714.66;2048642;70;20153;-76
2023/10/25 03:37:21;;;;;;;5.20;1.00;;;;;;;10.40;87.10;91700.78;2050753;70;20222;-75
2023/10/25 03:39:48;;;;;;;6.63;0.93;;;;;;;10.49;87.73;91706.75;2048654;70;20478;-75
2023/10/25 03:42:14;;;;;;;4.25;0.77;;;;;;;10.27;88.88;91698.06;2048003;70;20181;-75
2023/10/25 03:44:39;;;;;;;1.15;0.85;;;;;;;10.48;87.78;91714.47;2048630;70;20150;-75
2023/10/25 03:47:05;;;;;;;1.13;0.90;;;;;;;10.76;87.38;91712.19;2048104;70;20142;-75
2023/10/25 03:49:30;;;;;;;3.75;1.10;;;;;;;10.83;86.85;91719.56;2048651;69;20221;-75
2023/10/25 03:51:56;;;;;;;2.42;1.02;;;;;;;10.83;86.27;91705.50;2047994;70;20135;-74
2023/10/25 03:54:22;;;;;;;1.20;0.98;;;;;;;10.95;85.77;91713.75;2048766;70;20626;-73
2023/10/25 03:56:47;;;;;;;2.10;1.08;;;;;;;10.95;86.02;91716.56;2048821;70;20159;-75
2023/10/25 03:59:13;;;;;;;2.75;1.10;;;;;;;10.96;86.49;91715.19;2048535;69;20146;-76
2023/10/25 04:01:39;;;;;;;3.53;1.10;;;;;;;10.98;86.24;91706.09;2050704;70;20143;-77
2023/10/25 04:04:06;;;;;;;0.90;0.73;;;;;;;11.07;85.37;91714.25;2048545;70;20141;-77
2023/10/25 04:06:32;;;;;;;1.80;1.45;;;;;;;11.04;85.20;91709.16;2048517;69;20130;-78
2023/10/25 04:08:58;;;;;;;1.95;1.30;;;;;;;11.04;85.36;91709.16;2048450;70;20464;-75
2023/10/25 04:11:23;;;;;;;3.15;1.55;;;;;;;10.89;86.20;91705.03;2048556;70;20663;-76
2023/10/25 04:13:49;;;;;;;4.53;1.55;;;;;;;10.88;86.63;91698.66;2048855;70;20582;-76
2023/10/25 04:16:14;;;;;;;1.98;1.60;;;;;;;10.90;86.59;91703.66;2048566;69;20214;-76
2023/10/25 04:18:40;;;;;;;4.85;1.30;;;;;;;11.03;85.36;91710.53;2048600;70;20161;-75
2023/10/25 04:21:11;;;;;;;2.55;1.35;;;;;;;11.02;85.54;91703.47;2048287;69;20137;-75
2023/10/25 04:23:37;;;;;;;2.85;1.40;;;;;;;10.98;86.07;91701.19;2050528;70;20677;-76
2023/10/25 04:26:07;;;;;;;2.10;1.60;;;;;;;11.01;85.30;91704.84;2050720;70;20146;-76
2023/10/25 04:28:33;;;;;;;3.45;1.65;;;;;;;11.05;84.98;91707.81;2048608;70;20150;-78
2023/10/25 04:30:59;;;;;;;3.85;1.67;;;;;;;11.04;85.71;91706.34;2048708;70;20205;-76
2023/10/25 04:33:26;;;;;;;5.47;1.50;;;;;;;10.98;86.24;91706.09;2048656;70;20243;-79
2023/10/25 04:35:52;;;;;;;1.70;1.60;;;;;;;11.02;85.48;91701.38;2047955;70;20182;-76
2023/10/25 04:38:17;;;;;;;6.15;1.40;;;;;;;10.98;85.34;91694.84;2050570;70;20174;-77
2023/10/25 04:40:43;;;;;;;3.70;1.70;;;;;;;10.90;86.14;91707.22;2047966;70;20151;-79
2023/10/25 04:43:08;;;;;;;3.00;1.75;;;;;;;11.00;84.86;91701.28;2050749;70;20720;-76
2023/10/25 04:45:35;;;;;;;2.78;1.45;;;;;;;11.03;85.02;91693.63;2048443;70;20181;-78
2023/10/25 04:48:00;;;;;;;2.10;1.58;;;;;;;10.97;85.88;91691.31;2048404;70;20147;-76
2023/10/25 04:50:26;;;;;;;2.22;1.65;;;;;;;10.99;85.89;91701.91;2048438;70;20621;-77
2023/10/25 04:52:52;;;;;;;2.78;1.70;;;;;;;11.00;85.94;91698.47;2048295;70;20146;-79
2023/10/25 04:55:18;;;;;;;2.13;1.92;;;;;;;11.01;85.71;91699.91;2048395;70;20234;-78
2023/10/25 04:57:43;;;;;;;2.20;1.98;;;;;;;11.00;85.39;91694.94;2048485;69;20149;-76
2023/10/25 05:00:09;;;;;;;4.00;2.10;;;;;;;11.05;84.94;91696.56;2050511;70;20238;-74
2023/10/25 05:02:38;;;;;;;3.58;2.17;;;;;;;11.01;85.52;91693.56;2048411;70;20158;-75
2023/10/25 05:05:07;;;;;;;2.22;2.03;;;;;;;11.02;85.11;91684.47;2048536;70;20254;-75
2023/10/25 05:07:34;;;;;;;3.67;2.08;;;;;;;10.94;85.35;91676.41;2048400;70;20681;-78
2023/10/25 05:10:00;;;;;;;4.70;2.40;;;;;;;10.85;85.82;91674.59;2048634;70;20158;-76
2023/10/25 05:12:38;;;;;;;5.15;2.20;;;;;;;10.96;85.48;91675.78;2048543;70;20146;-76
2023/10/25 05:15:06;;;;;;;2.35;1.90;;;;;;;10.92;85.42;91672.78;2048314;70;20630;-79
2023/10/25 05:17:32;;;;;;;5.75;1.98;;;;;;;10.83;85.94;91666.06;2048388;70;20154;-76
2023/10/25 05:19:58;;;;;;;2.75;2.28;;;;;;;10.68;86.90;91670.38;2048479;70;20233;-78
2023/10/25 05:22:29;;;;;;;2.33;2.00;;;;;;;10.81;86.03;91671.63;2048506;70;20166;-76
2023/10/25 05:24:55;;;;;;;3.40;1.75;;;;;;;10.81;85.10;91676.50;2048436;70;20238;-77
2023/10/25 05:27:21;;;;;;;4.75;1.50;;;;;;;10.67;85.32;91668.91;2048410;70;20230;-76
2023/10/25 05:29:47;;;;;;;2.85;1.70;;;;;;;10.68;85.54;91678.09;2048375;70;20274;-78
2023/10/25 05:32:18;;;;;;;2.22;1.60;;;;;;;10.79;85.20;91676.44;2048402;70;20273;-78
2023/10/25 05:34:49;;;;;;;3.92;1.88;;;;;;;10.77;85.08;91674.25;2048359;70;20274;-78
2023/10/25 05:37:15;;;;;;;6.63;2.67;;;;;;;10.71;86.31;91676.06;2048207;70;20229;-75
2023/10/25 05:39:42;;;;;;;3.30;2.33;;;;;;;10.82;85.32;91677.97;2048322;70;20159;-75
2023/10/25 05:42:12;;;;;;;3.17;2.50;;;;;;;10.78;85.23;91681.34;2048349;70;20147;-75
2023/10/25 05:44:38;;;;;;;3.58;2.70;;;;;;;10.84;85.27;91678.78;2048352;70;20151;-75
2023/10/25 05:47:04;;;;;;;3.85;2.80;;;;;;;10.84;84.63;91669.59;2048220;70;20166;-76
2023/10/25 05:49:30;;;;;;;4.53;2.80;;;;;;;10.83;85.13;91674.53;2048751;70;20217;-77
2023/10/25 05:51:56;;;;;;;6.25;2.50;;;;;;;10.91;85.12;91676.97;2051548;70;20155;-75
2023/10/25 05:54:21;;;;;;;5.43;2.80;;;;;;;10.87;85.42;91671.88;2051713;70;20517;-79
2023/10/25 05:56:47;;;;;;;3.47;2.78;;;;;;;10.93;84.59;91671.41;2051753;70;20142;-77
2023/10/25 05:59:13;;;;;;;5.10;2.75;;;;;;;10.96;84.71;91667.31;2052334;70;20638;-76
2023/10/25 06:01:50;;;;;;;8.15;5.93;;;;;;;10.99;83.93;91670.94;2051487;70;20146;-76
2023/10/25 06:04:17;;;;;;;9.52;6.30;;;;;;;10.89;85.13;91677.59;2052039;69;20134;-76
2023/10/25 06:06:44;;;;;;;8.65;6.75;;;;;;;10.93;85.12;91674.94;2051997;70;20590;-77
2023/10/25 06:09:11;;;;;;;10.50;6.00;;;;;;;11.01;85.31;91673.84;2052180;69;20769;-76
2023/10/25 06:11:41;;;;;;;12.60;6.47;;;;;;;11.00;85.44;91678.03;2052015;69;20226;-76
2023/10/25 06:14:07;;;;;;;12.48;6.50;;;;;;;11.03;84.99;91682.38;2054255;69;20165;-74
2023/10/25 06:16:33;;;;;;;7.25;5.40;;;;;;;11.04;85.20;91672.56;2052122;69;20590;-74
2023/10/25 06:18:59;;;;;;;6.35;4.60;;;;;;;11.09;82.84;91677.03;2052072;70;20146;-75
2023/10/25 06:21:25;;;;;;;8.48;5.40;;;;;;;11.03;84.51;91682.38;2051998;70;20216;-75
2023/10/25 06:23:51;;;;;;;8.27;5.88;;;;;;;11.00;84.46;91672.41;2054089;70;20142;-74
2023/10/25 06:26:17;;;;;;;8.25;5.28;;;;;;;11.08;85.19;91684.72;2052052;70;20238;-74
2023/10/25 06:28:43;;;;;;;8.00;5.35;;;;;;;11.07;84.90;91686.09;2052068;69;20541;-77
2023/10/25 06:31:14;;;;;;;12.02;6.70;;;;;;;11.09;84.20;91683.38;2052066;69;20142;-75
2023/10/25 06:33:41;;;;;;;9.60;6.07;;;;;;;11.13;84.46;91682.81;2052215;70;20174;-78
2023/10/25 06:36:07;;;;;;;5.43;3.75;;;;;;;10.95;84.95;91682.78;2052155;70;20154;-77
2023/10/25 06:38:34;;;;;;;9.52;5.53;;;;;;;10.68;87.23;91683.72;2051956;70;20149;-77
2023/10/25 06:41:00;;;;;;;8.93;5.05;;;;;;;10.48;88.68;91672.28;2052200;70;20161;-77
2023/10/25 06:43:31;;;;;;;11.35;7.00;;;;;;;10.63;88.79;91682.09;2051685;70;20153;-78
2023/10/25 06:45:59;;;;;;;11.88;8.18;;;;;;;10.57;87.59;91676.91;2054325;70;20142;-78
2023/10/25 06:48:25;;;;;;;9.55;7.45;;;;;;;10.79;87.28;91691.22;2052161;70;20174;-77
2023/10/25 06:50:51;;;;;;;7.43;5.95;;;;;;;10.99;85.89;91682.94;2052101;69;20150;-77
2023/10/25 06:53:17;;;;;;;7.03;5.57;;;;;;;10.98;86.11;91683.56;2051939;70;20153;-76
2023/10/25 06:55:43;;;;;;;7.45;5.57;;;;;;;11.05;85.80;91683.19;2052116;70;20149;-78
2023/10/25 06:58:10;;;;;;;7.80;5.45;;;;;;;11.07;86.23;91679.75;2054274;70;20609;-75
2023/10/25 07:00:38;;;;;;;6.65;5.20;;;;;;;11.13;85.51;91677.91;2052037;70;20158;-75
2023/10/25 07:03:04;;;;;;;6.18;5.07;;;;;;;11.15;84.74;91680.09;2052014;70;20213;-78
2023/10/25 07:05:30;;;;;;;8.13;5.55;;;;;;;11.16;84.47;91676.63;2051897;70;20150;-77
2023/10/25 07:07:56;;;;;;;7.85;5.30;;;;;;;11.14;84.25;91673.00;2051877;70;20222;-78
2023/10/25 07:10:23;;;;;;;5.78;4.85;;;;;;;11.10;84.66;91672.84;2052035;70;20174;-78
2023/10/25 07:12:49;;;;;;;7.03;5.10;;;;;;;11.15;84.90;91677.28;2054125;70;20146;-75
2023/10/25 07:15:16;;;;;;;8.98;5.60;;;;;;;11.23;84.35;91685.34;2052120;70;20269;-78
2023/10/25 07:17:42;;;;;;;7.97;6.65;;;;;;;10.96;85.92;91672.97;2051825;70;20665;-76
2023/10/25 07:20:11;;;;;;;7.80;5.80;;;;;;;10.97;85.89;91670.88;2051805;70;20158;-76
2023/10/25 07:22:38;;;;;;;9.13;6.20;;;;;;;11.19;85.08;91664.09;2051726;70;20282;-77
2023/10/25 07:25:06;;;;;;;5.72;4.90;;;;;;;11.35;84.68;91677.38;2051857;70;20259;-74
2023/10/25 07:27:32;;;;;;;6.85;5.38;;;;;;;11.45;83.90;91666.53;2051940;69;20173;-76
2023/10/25 07:29:58;;;;;;;9.23;5.50;;;;;;;11.51;84.00;91655.50;2051888;70;20146;-76
2023/10/25 07:32:23;;;;;;;9.38;6.38;;;;;;;11.75;83.31;91678.31;2051857;69;20170;-79
2023/10/25 07:34:49;;;;;;;8.52;5.88;;;;;;;11.87;83.06;91672.47;2051510;70;20142;-75
2023/10/25 07:37:15;;;;;;;7.50;5.38;;;;;;;11.82;82.49;91668.78;2054159;70;20193;-78
2023/10/25 07:39:41;;;;;;;7.65;4.80;;;;;;;11.37;84.50;91664.13;2051960;70;20151;-78
2023/10/25 07:42:07;;;;;;;5.90;4.80;;;;;;;11.20;85.42;91662.72;2051852;70;20158;-76
2023/10/25 07:44:33;;;;;;;8.93;5.72;;;;;;;11.52;84.18;91668.22;2051992;70;20154;-76
2023/10/25 07:46:59;;;;;;;11.43;8.55;;;;;;;11.68;83.35;91662.50;2051935;70;20639;-78
2023/10/25 07:49:25;;;;;;;9.63;5.80;;;;;;;11.83;83.04;91663.84;2051936;70;20237;-79
2023/10/25 07:51:54;;;;;;;6.15;4.40;;;;;;;11.96;82.33;91660.13;2054200;70;20145;-79
2023/10/25 07:54:20;;;;;;;5.07;3.80;;;;;;;12.10;82.72;91657.88;2051889;69;20138;-79
2023/10/25 07:56:46;;;;;;;5.70;4.80;;;;;;;12.02;82.40;91662.47;2052013;70;20697;-80
2023/10/25 07:59:11;;;;;;;8.45;5.53;;;;;;;12.19;82.46;91656.09;2052012;70;20143;-75
2023/10/25 08:01:38;;;;;;;8.30;5.50;;;;;;;12.30;81.86;91654.34;2051884;70;20154;-75
2023/10/25 08:04:06;;;;;;;7.30;5.47;;;;;;;12.40;80.42;91661.09;2051840;69;20142;-78
2023/10/25 08:06:32;;;;;;;7.38;5.10;;;;;;;12.46;80.01;91646.47;2051958;69;20168;-78
2023/10/25 08:08:58;;;;;;;7.07;5.50;;;;;;;12.81;79.91;91667.50;2051723;70;20573;-75
2023/10/25 08:11:23;;;;;;;6.95;5.13;;;;;;;12.90;79.41;91672.81;2051903;69;20137;-76
2023/10/25 08:13:49;;;;;;;6.15;4.90;;;;;;;12.98;79.36;91658.25;2052011;70;20154;-77
2023/10/25 08:16:15;;;;;;;6.57;4.53;;;;;;;13.17;78.60;91657.50;2054055;70;20142;-80
2023/10/25 08:18:40;;;;;;;7.18;6.03;;;;;;;12.92;78.04;91647.47;2051669;70;20654;-80
2023/10/25 08:21:13;;;;;;;7.85;6.00;;;;;;;12.97;78.07;91651.88;2051798;69;20162;-81
2023/10/25 08:23:39;;;;;;;7.43;5.55;;;;;;;13.02;78.70;91652.75;2051711;70;20487;-80
2023/10/25 08:26:05;;;;;;;5.28;4.40;;;;;;;12.95;78.08;91648.97;2051764;70;20182;-80
2023/10/25 08:28:30;;;;;;;5.38;4.20;;;;;;;13.03;78.32;91648.53;2053938;69;20593;-78
2023/10/25 08:30:56;;;;;;;4.63;3.95;;;;;;;13.37;79.80;91651.13;2051745;70;20145;-77
2023/10/25 08:33:22;;;;;;;4.30;3.40;;;;;;;13.90;78.38;91647.91;2051847;70;20138;-78
2023/10/25 08:35:48;;;;;;;4.80;3.53;;;;;;;14.12;77.14;91638.69;2052104;70;20565;-80
2023/10/25 08:38:13;;;;;;;4.20;3.50;;;;;;;14.56;76.86;91635.75;2051618;70;20157;-78
2023/10/25 08:40:43;;;;;;;4.53;3.50;;;;;;;14.90;74.80;91631.09;2053927;70;20150;-77
2023/10/25 08:43:10;;;;;;;4.72;3.00;;;;;;;14.57;73.18;91637.94;2051949;70;20150;-77
2023/10/25 08:45:36;;;;;;;3.47;2.75;;;;;;;15.18;73.72;91622.63;2051742;70;20618;-77
2023/10/25 08:48:03;;;;;;;3.17;2.85;;;;;;;15.49;72.30;91621.31;2051726;69;20662;-78
2023/10/25 08:50:30;;;;;;;3.20;2.00;;;;;;;15.66;71.24;91630.25;2051101;70;20144;-78
2023/10/25 08:52:57;;;;;;;3.03;2.45;;;;;;;15.97;69.55;91632.44;2051580;70;20593;-80
2023/10/25 08:55:23;;;;;;;5.47;2.80;;;;;;;16.14;70.51;91633.53;2051843;70;20561;-83
2023/10/25 08:57:54;;;;;;;2.92;2.20;;;;;;;16.80;67.33;91635.72;2051648;70;20142;-77
2023/10/25 09:00:20;;;;;;;2.35;2.00;;;;;;;16.70;66.87;91639.03;2051721;70;20151;-77
2023/10/25 09:02:46;;;;;;;2.17;1.98;;;;;;;15.99;66.07;91637.44;2051742;69;20177;-77
2023/10/25 09:05:12;;;;;;;2.90;2.00;;;;;;;15.68;67.63;91639.53;2051668;70;20180;-80
2023/10/25 09:07:38;;;;;;;4.50;3.20;;;;;;;15.88;68.41;91636.47;2051523;70;20576;-79
2023/10/25 09:10:19;;;;;;;3.47;2.38;;;;;;;16.40;66.62;91639.13;2051799;70;20513;-79
2023/10/25 09:12:45;;;;;;;3.53;2.20;;;;;;;16.88;65.38;91627.34;2051594;69;20146;-80
2023/10/25 09:15:11;;;;;;;2.80;2.20;;;;;;;17.21;64.18;91637.25;2051056;70;20244;-79
2023/10/25 09:17:36;;;;;;;3.35;2.50;;;;;;;16.90;63.71;91626.66;2051772;70;20150;-82
2023/10/25 09:20:02;;;;;;;4.38;3.15;;;;;;;16.84;64.00;91624.44;2051877;69;20513;-83
2023/10/25 09:22:30;;;;;;;4.00;3.00;;;;;;;16.80;63.37;91624.34;2051578;69;20237;-78
2023/10/25 09:25:01;;;;;;;3.38;2.85;;;;;;;16.81;64.65;91613.69;2051733;70;20149;-81
2023/10/25 09:27:28;;;;;;;3.55;2.90;;;;;;;17.08;62.87;91615.66;2051652;70;20146;-80
2023/10/25 09:30:09;;;;;;;4.93;2.70;;;;;;;17.58;63.11;91606.63;2051786;70;20150;-81
2023/10/25 09:32:35;;;;;;;2.92;2.58;;;;;;;17.32;61.89;91615.44;2051601;70;20283;-80
2023/10/25 09:35:03;;;;;;;2.95;2.15;;;;;;;16.61;62.69;91611.13;2051735;70;20138;-83
2023/10/25 09:37:29;;;;;;;2.38;2.10;;;;;;;16.57;62.86;91608.19;2051738;70;20178;-82
2023/10/25 09:39:54;;;;;;;2.03;1.83;;;;;;;16.97;61.95;91605.50;2051683;69;20232;-80
2023/10/25 09:42:25;;;;;;;2.40;2.20;;;;;;;17.12;61.53;91595.84;2051159;70;20162;-79
2023/10/25 09:45:01;;;;;;;5.80;2.10;;;;;;;18.50;60.45;91596.69;2051582;69;20150;-79
2023/10/25 09:47:35;;;;;;;5.72;2.92;;;;;;;17.70;60.79;91594.75;2051673;70;20146;-81
2023/10/25 09:50:10;;;;;;;6.43;5.03;;;;;;;17.98;59.41;91583.84;2051552;70;20669;-80
2023/10/25 09:52:40;;;;;;;1.98;1.70;;;;;;;18.49;58.01;91593.13;2053597;69;20158;-78
2023/10/25 09:55:14;;;;;;;1.92;1.70;;;;;;;18.46;56.91;91586.00;2051558;70;20145;-79
2023/10/25 09:57:41;;;;;;;2.28;1.60;;;;;;;18.44;57.93;91588.78;2051816;70;20146;-79
2023/10/25 10:00:08;;;;;;;2.05;1.70;;;;;;;17.16;60.24;91578.16;2051678;70;20142;-80
2023/10/25 10:02:44;;;;;;;2.83;2.10;;;;;;;18.24;58.84;91580.69;2051589;70;20154;-79
2023/10/25 10:05:17;;;;;;;2.58;1.77;;;;;;;18.81;58.48;91580.03;2051588;69;20142;-80
2023/10/25 10:08:05;;;;;;;3.17;2.75;;;;;;;18.74;57.33;91579.25;2051408;70;20142;-79
2023/10/25 10:10:39;;;;;;;3.67;1.80;;;;;;;18.10;59.04;91571.19;2051592;70;20134;-79
2023/10/25 10:13:18;;;;;;;2.85;1.60;;;;;;;18.59;58.27;91563.34;2051702;70;20636;-79
2023/10/25 10:16:08;;;;;;;2.65;1.58;;;;;;;17.47;59.82;91560.22;2051552;70;20134;-80
2023/10/25 10:18:36;;;;;;;3.10;1.30;;;;;;;17.48;59.16;91564.50;2051511;70;20220;-79
2023/10/25 10:21:06;;;;;;;1.30;1.20;;;;;;;17.06;61.95;91563.75;2051439;69;20244;-79
2023/10/25 10:23:40;;;;;;;1.70;1.60;;;;;;;15.63;67.02;91561.38;2051517;70;20207;-81
2023/10/25 10:26:10;;;;;;;5.28;2.00;;;;;;;16.62;65.08;91561.44;2051572;69;20158;-78
2023/10/25 10:28:38;;;;;;;3.53;2.00;;;;;;;18.87;61.54;91555.16;2051035;70;20153;-79
2023/10/25 10:31:04;;;;;;;1.83;1.65;;;;;;;21.02;54.58;91558.34;2051615;70;20278;-78
2023/10/25 10:33:29;;;;;;;4.53;1.60;;;;;;;22.92;50.79;91554.94;2053807;70;20143;-78
2023/10/25 10:35:59;;;;;;;1.35;1.25;;;;;;;22.35;48.62;91547.13;2051035;70;20276;-79
2023/10/25 10:38:25;;;;;;;1.00;0.90;;;;;;;21.78;49.48;91533.53;2051332;70;20155;-79
2023/10/25 10:40:51;;;;;;;1.00;0.90;;;;;;;21.37;47.86;91532.75;2051453;70;20529;-80
2023/10/25 10:43:17;;;;;;;1.85;1.00;;;;;;;21.89;49.19;91522.06;2053970;70;20138;-80
2023/10/25 10:45:44;;;;;;;1.60;1.13;;;;;;;22.84;47.15;91524.81;2051993;70;20153;-80
2023/10/25 10:48:19;;;;;;;1.13;0.70;;;;;;;24.50;46.50;91512.31;2054343;69;20166;-80
2023/10/25 10:50:49;;;;;;;0.80;0.80;;;;;;;24.62;43.85;91517.94;2051974;70;20637;-81
2023/10/25 10:53:15;;;;;;;1.30;0.90;;;;;;;24.77;43.45;91499.06;2051930;70;20644;-80
2023/10/25 10:55:40;;;;;;;1.63;0.90;;;;;;;28.56;39.56;91506.13;2052017;69;20149;-80
2023/10/25 10:58:07;;;;;;;0.65;0.65;;;;;;;28.61;37.03;91481.38;2051910;69;20138;-81
2023/10/25 11:00:33;;;;;;;1.67;0.73;;;;;;;29.46;36.59;91503.00;2052000;70;20127;-78
2023/10/25 11:03:03;;;;;;;1.40;0.50;;;;;;;30.95;33.63;91499.09;2052037;70;20186;-79
2023/10/25 11:05:29;;;;;;;0.35;0.35;;;;;;;29.41;35.03;91496.59;2051195;70;20606;-79
2023/10/25 11:07:55;;;;;;;0.40;0.40;;;;;;;29.64;33.39;91488.00;2050262;69;20272;-79
2023/10/25 11:10:21;;;;;;;0.30;0.30;;;;;;;31.42;33.24;91485.13;2050171;70;20171;-78
2023/10/25 11:12:47;;;;;;;0.30;0.30;;;;;;;32.10;32.24;91490.56;2050287;69;20237;-79
2023/10/25 11:15:13;;;;;;;0.45;0.40;;;;;;;34.43;30.22;91488.63;2051885;69;20150;-78
2023/10/25 11:17:39;;;;;;;1.70;0.60;;;;;;;33.04;29.64;91486.09;2051989;69;20704;-79
2023/10/25 11:20:06;;;;;;;2.00;0.63;;;;;;;35.50;29.09;91484.81;2051457;70;20205;-80
2023/10/25 11:22:32;;;;;;;0.93;0.60;;;;;;;37.30;27.18;91484.41;2051839;69;20166;-80
2023/10/25 11:24:58;;;;;;;0.80;0.40;;;;;;;36.60;26.62;91481.78;2052056;69;20245;-79
2023/10/25 11:27:31;;;;;;;2.20;0.40;;;;;;;37.03;26.44;91477.16;2051779;69;20594;-79
2023/10/25 11:29:58;;;;;;;0.75;0.35;;;;;;;37.96;25.02;91481.19;2051897;69;20150;-79
2023/10/25 11:32:23;;;;;;;0.40;0.40;;;;;;;38.02;23.95;91477.88;2051859;69;20150;-78
2023/10/25 11:34:54;;;;;;;3.25;0.60;;;;;;;39.39;23.53;91473.44;2053995;69;20619;-79
2023/10/25 11:37:20;;;;;;;0.60;0.60;;;;;;;39.42;23.39;91461.56;2051737;69;20150;-79
2023/10/25 11:39:56;;;;;;;2.15;0.50;;;;;;;39.03;23.61;91458.22;2051926;69;20144;-79